Time,TemperatureF,DewpointF,PressureIn,WindDirection,WindDirectionDegrees,WindSpeedMPH,WindSpeedGustMPH,Humidity,HourlyPrecipIn,Conditions,Clouds,dailyrainin,SoftwareType,DateUTC
2013-02-15 00:00:00,62.9,41.0,30.15,ENE,68,10.0,16.0,44,0.00,,,0.00,,2013-02-15 08:00:00,
2013-02-15 00:10:00,63.1,41.0,30.15,ENE,72,12.0,16.0,44,0.00,,,0.00,,2013-02-15 08:10:00,
2013-02-15 00:20:00,62.9,41.0,30.15,East,80,10.0,16.0,44,0.00,,,0.00,,2013-02-15 08:20:00,
2013-02-15 00:30:00,62.9,41.0,30.15,ENE,65,10.0,16.0,44,0.00,,,0.00,,2013-02-15 08:30:00,
2013-02-15 00:40:00,62.4,40.0,30.15,ENE,78,11.0,13.0,44,0.00,,,0.00,,2013-02-15 08:40:00,
2013-02-15 00:50:00,62.6,40.0,30.15,ENE,76,14.0,16.0,43,0.00,,,0.00,,2013-02-15 08:50:00,
2013-02-15 01:00:00,62.9,40.0,30.15,ENE,59,15.0,16.0,43,0.00,,,0.00,,2013-02-15 09:00:00,
2013-02-15 01:10:00,63.1,39.0,30.15,ENE,61,14.0,16.0,41,0.00,,,0.00,,2013-02-15 09:10:00,
2013-02-15 01:20:00,63.2,38.0,30.15,NE,52,11.0,17.0,40,0.00,,,0.00,,2013-02-15 09:20:00,
2013-02-15 01:30:00,63.2,38.0,30.15,ENE,76,4.0,20.0,39,0.00,,,0.00,,2013-02-15 09:30:00,
2013-02-15 01:40:00,63.0,38.0,30.15,ENE,74,9.0,13.0,40,0.00,,,0.00,,2013-02-15 09:40:00,
2013-02-15 01:50:00,62.9,38.0,30.14,NE,55,3.0,17.0,39,0.00,,,0.00,,2013-02-15 09:50:00,
2013-02-15 02:00:00,62.7,38.0,30.15,NE,51,9.0,13.0,40,0.00,,,0.00,,2013-02-15 10:00:00,
2013-02-15 02:10:00,62.6,38.0,30.14,NE,46,11.0,11.0,40,0.00,,,0.00,,2013-02-15 10:10:00,
2013-02-15 02:20:00,62.5,38.0,30.14,NE,52,9.0,14.0,41,0.00,,,0.00,,2013-02-15 10:20:00,
2013-02-15 02:30:00,62.9,38.0,30.14,East,82,13.0,17.0,40,0.00,,,0.00,,2013-02-15 10:30:00,
2013-02-15 02:40:00,63.1,38.0,30.14,NE,53,12.0,17.0,39,0.00,,,0.00,,2013-02-15 10:40:00,
2013-02-15 02:50:00,63.4,37.0,30.13,ENE,59,14.0,22.0,38,0.00,,,0.00,,2013-02-15 10:50:00,
2013-02-15 03:00:00,64.1,37.0,30.13,ENE,66,14.0,21.0,36,0.00,,,0.00,,2013-02-15 11:00:00,
2013-02-15 03:10:00,64.5,36.0,30.13,NE,50,16.0,20.0,35,0.00,,,0.00,,2013-02-15 11:10:00,
2013-02-15 03:20:00,64.1,37.0,30.12,ENE,58,13.0,18.0,36,0.00,,,0.00,,2013-02-15 11:20:00,
2013-02-15 03:30:00,64.0,37.0,30.12,ENE,69,18.0,20.0,36,0.00,,,0.00,,2013-02-15 11:30:00,
2013-02-15 03:40:00,63.6,36.0,30.12,ENE,62,16.0,18.0,36,0.00,,,0.00,,2013-02-15 11:40:00,
2013-02-15 03:50:00,63.9,36.0,30.12,East,81,11.0,20.0,36,0.00,,,0.00,,2013-02-15 11:50:00,
2013-02-15 04:00:00,63.8,36.0,30.13,East,85,11.0,19.0,36,0.00,,,0.00,,2013-02-15 12:00:00,
2013-02-15 04:10:00,63.9,36.0,30.13,ENE,70,11.0,16.0,35,0.00,,,0.00,,2013-02-15 12:10:00,
2013-02-15 04:20:00,63.3,37.0,30.13,ENE,76,9.0,19.0,37,0.00,,,0.00,,2013-02-15 12:20:00,
2013-02-15 04:30:00,62.8,37.0,30.13,ENE,60,12.0,16.0,38,0.00,,,0.00,,2013-02-15 12:30:00,
2013-02-15 04:40:00,63.4,36.0,30.13,ENE,62,9.0,17.0,36,0.00,,,0.00,,2013-02-15 12:40:00,
2013-02-15 04:50:00,63.1,36.0,30.13,South,175,2.0,10.0,37,0.00,,,0.00,,2013-02-15 12:50:00,
2013-02-15 05:00:00,62.4,36.0,30.13,ENE,62,12.0,16.0,38,0.00,,,0.00,,2013-02-15 13:00:00,
2013-02-15 05:10:00,62.4,36.0,30.13,ENE,66,9.0,14.0,38,0.00,,,0.00,,2013-02-15 13:10:00,
2013-02-15 05:20:00,62.6,37.0,30.14,NE,39,14.0,16.0,39,0.00,,,0.00,,2013-02-15 13:20:00,
2013-02-15 05:30:00,62.2,38.0,30.14,ENE,63,4.0,14.0,40,0.00,,,0.00,,2013-02-15 13:30:00,
2013-02-15 05:40:00,61.8,38.0,30.14,ENE,70,7.0,10.0,41,0.00,,,0.00,,2013-02-15 13:40:00,
2013-02-15 05:50:00,61.3,38.0,30.14,NE,52,5.0,9.0,42,0.00,,,0.00,,2013-02-15 13:50:00,
2013-02-15 06:00:00,62.1,37.0,30.14,ENE,78,5.0,12.0,39,0.00,,,0.00,,2013-02-15 14:00:00,
2013-02-15 06:10:00,63.0,36.0,30.14,ENE,69,8.0,14.0,37,0.00,,,0.00,,2013-02-15 14:10:00,
2013-02-15 06:20:00,63.2,36.0,30.14,ENE,59,9.0,11.0,36,0.00,,,0.00,,2013-02-15 14:20:00,
2013-02-15 06:30:00,63.2,36.0,30.14,ENE,65,8.0,12.0,36,0.00,,,0.00,,2013-02-15 14:30:00,
2013-02-15 06:40:00,62.6,36.0,30.14,ESE,109,3.0,11.0,37,0.00,,,0.00,,2013-02-15 14:40:00,
2013-02-15 06:50:00,61.4,36.0,30.15,ESE,121,2.0,2.0,39,0.00,,,0.00,,2013-02-15 14:50:00,
2013-02-15 07:00:00,61.9,36.0,30.15,ENE,68,3.0,7.0,38,0.00,,,0.00,,2013-02-15 15:00:00,
2013-02-15 07:10:00,62.2,36.0,30.15,NE,38,9.0,10.0,38,0.00,,,0.00,,2013-02-15 15:10:00,
2013-02-15 07:20:00,62.6,37.0,30.16,NE,54,5.0,14.0,38,0.00,,,0.00,,2013-02-15 15:20:00,
2013-02-15 07:30:00,62.5,37.0,30.16,NE,40,8.0,17.0,38,0.00,,,0.00,,2013-02-15 15:30:00,
2013-02-15 07:40:00,61.9,37.0,30.16,NE,53,11.0,17.0,40,0.00,,,0.00,,2013-02-15 15:40:00,
2013-02-15 07:50:00,62.0,37.0,30.17,NE,45,13.0,15.0,40,0.00,,,0.00,,2013-02-15 15:50:00,
2013-02-15 08:00:00,63.3,37.0,30.17,NE,38,10.0,13.0,38,0.00,,,0.00,,2013-02-15 16:00:00,
2013-02-15 08:10:00,63.2,38.0,30.17,NE,53,9.0,12.0,39,0.00,,,0.00,,2013-02-15 16:10:00,
2013-02-15 08:20:00,63.5,38.0,30.17,NE,47,6.0,10.0,39,0.00,,,0.00,,2013-02-15 16:20:00,
2013-02-15 08:30:00,64.2,38.0,30.17,ENE,57,5.0,8.0,38,0.00,,,0.00,,2013-02-15 16:30:00,
2013-02-15 08:40:00,65.0,40.0,30.17,ENE,57,2.0,9.0,40,0.00,,,0.00,,2013-02-15 16:40:00,
2013-02-15 08:50:00,66.3,39.0,30.18,ENE,61,8.0,11.0,36,0.00,,,0.00,,2013-02-15 16:50:00,
2013-02-15 09:00:00,67.1,39.0,30.18,NE,51,8.0,11.0,36,0.00,,,0.00,,2013-02-15 17:00:00,
2013-02-15 09:10:00,67.7,39.0,30.18,NE,49,6.0,9.0,35,0.00,,,0.00,,2013-02-15 17:10:00,
2013-02-15 09:20:00,68.6,41.0,30.18,SW,216,1.0,5.0,36,0.00,,,0.00,,2013-02-15 17:20:00,
2013-02-15 09:30:00,69.0,39.0,30.17,WNW,299,0.0,5.0,34,0.00,,,0.00,,2013-02-15 17:30:00,
2013-02-15 09:40:00,69.7,40.0,30.17,WNW,284,0.0,5.0,34,0.00,,,0.00,,2013-02-15 17:40:00,
2013-02-15 09:50:00,69.3,39.0,30.17,West,281,0.0,4.0,33,0.00,,,0.00,,2013-02-15 17:50:00,
2013-02-15 10:00:00,70.8,39.0,30.17,WSW,242,1.0,4.0,32,0.00,,,0.00,,2013-02-15 18:00:00,
2013-02-15 10:10:00,72.6,39.0,30.17,SSW,200,1.0,4.0,30,0.00,,,0.00,,2013-02-15 18:10:00,
2013-02-15 10:20:00,72.6,39.0,30.18,SSW,198,3.0,4.0,30,0.00,,,0.00,,2013-02-15 18:20:00,
2013-02-15 10:30:00,72.3,40.0,30.17,NW,319,1.0,11.0,31,0.00,,,0.00,,2013-02-15 18:30:00,
2013-02-15 10:40:00,73.5,37.0,30.18,ESE,103,3.0,10.0,27,0.00,,,0.00,,2013-02-15 18:40:00,
2013-02-15 10:50:00,75.2,36.0,30.18,SSW,209,1.0,18.0,24,0.00,,,0.00,,2013-02-15 18:50:00,
2013-02-15 11:00:00,75.7,37.0,30.18,SSW,207,7.0,13.0,25,0.00,,,0.00,,2013-02-15 19:00:00,
2013-02-15 11:10:00,76.2,38.0,30.17,South,181,3.0,11.0,25,0.00,,,0.00,,2013-02-15 19:10:00,
2013-02-15 11:20:00,76.2,36.0,30.17,SSW,192,4.0,12.0,23,0.00,,,0.00,,2013-02-15 19:20:00,
2013-02-15 11:30:00,76.4,36.0,30.17,South,187,7.0,19.0,23,0.00,,,0.00,,2013-02-15 19:30:00,
2013-02-15 11:40:00,77.0,37.0,30.17,SSE,161,8.0,15.0,24,0.00,,,0.00,,2013-02-15 19:40:00,
2013-02-15 11:50:00,77.3,34.0,30.17,SSW,208,11.0,18.0,21,0.00,,,0.00,,2013-02-15 19:50:00,
2013-02-15 12:00:00,77.9,36.0,30.16,NE,43,4.0,16.0,22,0.00,,,0.00,,2013-02-15 20:00:00,
2013-02-15 12:10:00,78.6,34.0,30.16,ESE,119,3.0,14.0,20,0.00,,,0.00,,2013-02-15 20:10:00,
2013-02-15 12:20:00,78.6,37.0,30.15,SSE,165,4.0,13.0,22,0.00,,,0.00,,2013-02-15 20:20:00,
2013-02-15 12:30:00,78.9,37.0,30.15,SSE,161,7.0,12.0,22,0.00,,,0.00,,2013-02-15 20:30:00,
2013-02-15 12:40:00,74.2,46.0,30.15,ESE,113,9.0,16.0,36,0.00,,,0.00,,2013-02-15 20:40:00,
2013-02-15 12:50:00,66.0,47.0,30.15,SSW,211,4.0,9.0,51,0.00,,,0.00,,2013-02-15 20:50:00,
2013-02-15 13:00:00,65.5,48.0,30.14,SSW,202,3.0,5.0,54,0.00,,,0.00,,2013-02-15 21:00:00,
2013-02-15 13:10:00,65.0,49.0,30.14,SSW,212,4.0,5.0,56,0.00,,,0.00,,2013-02-15 21:10:00,
2013-02-15 13:20:00,64.5,49.0,30.13,SW,214,3.0,5.0,57,0.00,,,0.00,,2013-02-15 21:20:00,
2013-02-15 13:30:00,64.1,49.0,30.13,West,273,6.0,8.0,58,0.00,,,0.00,,2013-02-15 21:30:00,
2013-02-15 13:40:00,64.7,49.0,30.13,West,273,2.0,7.0,57,0.00,,,0.00,,2013-02-15 21:40:00,
2013-02-15 13:50:00,65.2,50.0,30.13,West,269,6.0,10.0,57,0.00,,,0.00,,2013-02-15 21:50:00,
2013-02-15 14:00:00,63.8,51.0,30.13,West,277,5.0,9.0,64,0.00,,,0.00,,2013-02-15 22:00:00,
2013-02-15 14:10:00,65.0,51.0,30.13,West,272,5.0,7.0,61,0.00,,,0.00,,2013-02-15 22:10:00,
2013-02-15 14:20:00,66.8,51.0,30.13,West,277,4.0,8.0,57,0.00,,,0.00,,2013-02-15 22:20:00,
2013-02-15 14:30:00,65.5,53.0,30.12,WNW,286,3.0,7.0,65,0.00,,,0.00,,2013-02-15 22:30:00,
2013-02-15 14:40:00,66.8,51.0,30.12,West,275,5.0,7.0,56,0.00,,,0.00,,2013-02-15 22:40:00,
2013-02-15 14:50:00,68.0,50.0,30.12,NW,312,4.0,7.0,53,0.00,,,0.00,,2013-02-15 22:50:00,
2013-02-15 15:00:00,66.6,53.0,30.12,WNW,286,4.0,7.0,61,0.00,,,0.00,,2013-02-15 23:00:00,
2013-02-15 15:10:00,65.7,53.0,30.12,West,274,3.0,5.0,63,0.00,,,0.00,,2013-02-15 23:10:00,
2013-02-15 15:20:00,66.8,53.0,30.13,WNW,298,3.0,5.0,62,0.00,,,0.00,,2013-02-15 23:20:00,
2013-02-15 15:30:00,66.3,53.0,30.13,West,263,1.0,5.0,62,0.00,,,0.00,,2013-02-15 23:30:00,
2013-02-15 15:40:00,62.6,52.0,30.13,West,271,2.0,5.0,69,0.00,,,0.00,,2013-02-15 23:40:00,
2013-02-15 15:50:00,61.8,53.0,30.13,WSW,246,2.0,4.0,73,0.00,,,0.00,,2013-02-15 23:50:00,
2013-02-15 16:00:00,61.8,53.0,30.13,WSW,246,3.0,4.0,73,0.00,,,0.00,,2013-02-16 00:00:00,
2013-02-15 16:10:00,61.5,53.0,30.14,WSW,246,3.0,4.0,74,0.00,,,0.00,,2013-02-16 00:10:00,
2013-02-15 16:20:00,61.8,54.0,30.14,WSW,254,0.0,4.0,75,0.00,,,0.00,,2013-02-16 00:20:00,
2013-02-15 16:30:00,61.5,53.0,30.14,WSW,254,1.0,3.0,74,0.00,,,0.00,,2013-02-16 00:30:00,
2013-02-15 16:40:00,61.7,53.0,30.14,WSW,255,2.0,3.0,73,0.00,,,0.00,,2013-02-16 00:40:00,
2013-02-15 16:50:00,61.6,53.0,30.14,WSW,255,1.0,3.0,74,0.00,,,0.00,,2013-02-16 00:50:00,
2013-02-15 17:00:00,61.3,53.0,30.14,WSW,255,0.0,3.0,73,0.00,,,0.00,,2013-02-16 01:00:00,
2013-02-15 17:10:00,61.0,52.0,30.14,WSW,256,1.0,3.0,73,0.00,,,0.00,,2013-02-16 01:10:00,
2013-02-15 17:20:00,60.0,52.0,30.14,NW,324,0.0,5.0,74,0.00,,,0.00,,2013-02-16 01:20:00,
2013-02-15 17:30:00,58.9,51.0,30.14,NW,324,3.0,4.0,74,0.00,,,0.00,,2013-02-16 01:30:00,
2013-02-15 17:40:00,58.7,51.0,30.14,NW,313,2.0,3.0,75,0.00,,,0.00,,2013-02-16 01:40:00,
2013-02-15 17:50:00,58.1,50.0,30.14,NW,313,3.0,5.0,74,0.00,,,0.00,,2013-02-16 01:50:00,
2013-02-15 18:00:00,57.9,50.0,30.15,WNW,297,1.0,4.0,74,0.00,,,0.00,,2013-02-16 02:00:00,
2013-02-15 18:10:00,57.3,49.0,30.15,NW,310,1.0,4.0,74,0.00,,,0.00,,2013-02-16 02:10:00,
2013-02-15 18:20:00,57.3,49.0,30.15,NW,310,2.0,3.0,74,0.00,,,0.00,,2013-02-16 02:20:00,
2013-02-15 18:30:00,57.2,49.0,30.15,NW,310,0.0,2.0,74,0.00,,,0.00,,2013-02-16 02:30:00,
2013-02-15 18:40:00,56.6,48.0,30.15,NW,310,0.0,0.0,73,0.00,,,0.00,,2013-02-16 02:40:00,
2013-02-15 18:50:00,56.8,49.0,30.15,NW,310,0.0,0.0,75,0.00,,,0.00,,2013-02-16 02:50:00,
2013-02-15 19:00:00,57.4,47.0,30.15,NE,41,7.0,10.0,68,0.00,,,0.00,,2013-02-16 03:00:00,
2013-02-15 19:10:00,63.7,40.0,30.15,ENE,57,7.0,9.0,42,0.00,,,0.00,,2013-02-16 03:10:00,
2013-02-15 19:20:00,65.2,38.0,30.15,NE,56,2.0,7.0,37,0.00,,,0.00,,2013-02-16 03:20:00,
2013-02-15 19:30:00,65.2,40.0,30.15,ENE,68,2.0,6.0,39,0.00,,,0.00,,2013-02-16 03:30:00,
2013-02-15 19:40:00,62.1,46.0,30.15,ESE,116,0.0,4.0,56,0.00,,,0.00,,2013-02-16 03:40:00,
2013-02-15 19:50:00,61.7,39.0,30.15,ENE,69,3.0,3.0,43,0.00,,,0.00,,2013-02-16 03:50:00,
2013-02-15 20:00:00,63.7,41.0,30.15,ENE,78,2.0,4.0,43,0.00,,,0.00,,2013-02-16 04:00:00,
2013-02-15 20:10:00,62.6,43.0,30.16,East,83,2.0,3.0,48,0.00,,,0.00,,2013-02-16 04:10:00,
2013-02-15 20:20:00,63.0,38.0,30.16,East,90,0.0,5.0,40,0.00,,,0.00,,2013-02-16 04:20:00,
2013-02-15 20:30:00,63.1,48.0,30.16,SSE,165,1.0,4.0,58,0.00,,,0.00,,2013-02-16 04:30:00,
2013-02-15 20:40:00,62.9,39.0,30.16,SE,128,1.0,5.0,42,0.00,,,0.00,,2013-02-16 04:40:00,
2013-02-15 20:50:00,63.9,40.0,30.16,ESE,118,1.0,4.0,41,0.00,,,0.00,,2013-02-16 04:50:00,
2013-02-15 21:10:00,65.6,39.0,30.16,WSW,244,2.0,5.0,38,0.00,,,0.00,,2013-02-16 05:10:00,
2013-02-15 21:20:00,65.5,40.0,30.16,SSE,166,1.0,7.0,39,0.00,,,0.00,,2013-02-16 05:20:00,
2013-02-15 21:30:00,64.6,40.0,30.16,WNW,294,3.0,5.0,41,0.00,,,0.00,,2013-02-16 05:30:00,
2013-02-15 21:40:00,64.8,41.0,30.16,South,187,2.0,7.0,41,0.00,,,0.00,,2013-02-16 05:40:00,
2013-02-15 21:50:00,65.5,41.0,30.16,South,170,1.0,9.0,41,0.00,,,0.00,,2013-02-16 05:50:00,
2013-02-15 22:00:00,64.9,41.0,30.16,SSE,150,0.0,10.0,42,0.00,,,0.00,,2013-02-16 06:00:00,
2013-02-15 22:10:00,64.1,41.0,30.16,SE,136,0.0,6.0,43,0.00,,,0.00,,2013-02-16 06:10:00,
2013-02-15 22:20:00,63.6,41.0,30.16,ENE,78,2.0,3.0,44,0.00,,,0.00,,2013-02-16 06:20:00,
2013-02-15 22:30:00,63.3,41.0,30.15,South,171,7.0,11.0,44,0.00,,,0.00,,2013-02-16 06:30:00,
2013-02-15 22:40:00,64.4,41.0,30.15,ENE,75,2.0,6.0,43,0.00,,,0.00,,2013-02-16 06:40:00,
2013-02-15 22:50:00,63.9,40.0,30.15,SW,223,7.0,7.0,42,0.00,,,0.00,,2013-02-16 06:50:00,
2013-02-15 23:00:00,65.8,40.0,30.15,South,169,5.0,8.0,39,0.00,,,0.00,,2013-02-16 07:00:00,
2013-02-15 23:10:00,66.9,40.0,30.15,WSW,251,4.0,9.0,38,0.00,,,0.00,,2013-02-16 07:10:00,
2013-02-15 23:20:00,66.8,40.0,30.15,WSW,247,6.0,7.0,37,0.00,,,0.00,,2013-02-16 07:20:00,
2013-02-15 23:30:00,67.0,41.0,30.15,West,268,5.0,13.0,38,0.00,,,0.00,,2013-02-16 07:30:00,
2013-02-15 23:40:00,67.0,41.0,30.15,SW,235,2.0,7.0,38,0.00,,,0.00,,2013-02-16 07:40:00,
2013-02-15 23:50:00,66.7,40.0,30.14,SSW,196,2.0,9.0,37,0.00,,,0.00,,2013-02-16 07:50:00,